Time;durP1;ratioP1;P1;durP2;ratioP2;P2;SDS_P1;SDS_P2;PMS_P1;PMS_P2;Temp;Humidity;BMP_temperature;BMP_pressure;BME280_temperature;BME280_humidity;BME280_pressure;Samples;Min_cycle;Max_cycle;Signal;HPM_P1;HPM_P2
2023/01/27 00:00:15;;;;;;;6.07;1.50;;;;;;;-140.72;100.00;53255.34;6273743;22;20200;-68
2023/01/27 00:02:42;;;;;;;3.72;0.98;;;;;;;-140.72;100.00;53241.16;6273848;22;20079;-69
2023/01/27 00:05:09;;;;;;;3.13;0.65;;;;;;;-140.72;100.00;53253.31;6272915;22;19996;-68
2023/01/27 00:07:35;;;;;;;7.88;0.93;;;;;;;-140.72;100.00;53198.53;6273430;22;20011;-69
2023/01/27 00:10:01;;;;;;;5.15;0.93;;;;;;;-140.72;100.00;53259.41;6274054;22;20022;-68
2023/01/27 00:15:14;;;;;;;3.25;1.00;;;;;;;-140.72;100.00;53237.09;6241100;22;20094;-68
2023/01/27 00:17:40;;;;;;;7.78;1.77;;;;;;;-140.72;100.00;53235.06;6272889;22;20003;-69
2023/01/27 00:20:06;;;;;;;7.05;1.55;;;;;;;-140.72;100.00;53237.09;6273836;22;20444;-68
2023/01/27 00:25:16;;;;;;;3.20;1.17;;;;;;;-140.72;100.00;53271.59;6272792;22;20026;-67
2023/01/27 00:27:41;;;;;;;2.20;0.75;;;;;;;-140.72;100.00;53231.00;6273224;22;19996;-68
2023/01/27 00:30:08;;;;;;;4.55;0.93;;;;;;;-140.72;100.00;53226.94;6273234;22;19995;-68
2023/01/27 00:35:17;;;;;;;6.18;0.90;;;;;;;-140.72;100.00;53247.25;6273867;22;20018;-68
2023/01/27 00:37:47;;;;;;;7.60;1.05;;;;;;;-140.72;100.00;53224.91;6272926;22;20003;-68
2023/01/27 00:40:14;;;;;;;4.30;0.75;;;;;;;-140.72;100.00;53218.81;6272568;22;20094;-67
2023/01/27 00:42:41;;;;;;;1.30;0.55;;;;;;;-140.72;100.00;53204.63;6273285;22;20011;-67
2023/01/27 00:47:54;;;;;;;1.17;0.65;;;;;;;-140.72;100.00;53231.00;6272563;22;20014;-68
2023/01/27 00:50:20;;;;;;;11.82;1.50;;;;;;;-140.72;100.00;53263.47;6273284;22;20015;-68
2023/01/27 00:52:46;;;;;;;2.78;0.77;;;;;;;-140.72;100.00;53235.06;6273132;22;19999;-68
2023/01/27 00:55:14;;;;;;;3.25;0.65;;;;;;;-140.72;100.00;53271.59;6272303;22;20057;-67
2023/01/27 00:57:40;;;;;;;3.35;0.52;;;;;;;-140.72;100.00;53269.56;6272918;22;20003;-68
2023/01/27 01:00:08;;;;;;;2.50;0.88;;;;;;;-140.72;100.00;53226.94;6271940;22;20082;-68
2023/01/27 01:02:33;;;;;;;4.10;0.65;;;;;;;-140.72;100.00;53239.13;6272671;22;20006;-69
2023/01/27 01:04:59;;;;;;;2.55;0.50;;;;;;;-140.72;100.00;53259.41;6273279;22;19996;-68
2023/01/27 01:07:24;;;;;;;4.13;0.90;;;;;;;-140.72;100.00;53239.13;6272578;22;19999;-68
2023/01/27 01:09:49;;;;;;;4.70;1.17;;;;;;;-140.72;100.00;53243.19;6273335;22;20000;-67
2023/01/27 01:12:15;;;;;;;5.68;0.90;;;;;;;-140.72;100.00;53287.84;6273178;22;20114;-68
2023/01/27 01:14:40;;;;;;;2.65;0.93;;;;;;;-140.72;100.00;53243.19;6272521;22;20010;-68
2023/01/27 01:17:06;;;;;;;4.80;0.93;;;;;;;-140.72;100.00;53249.28;6273095;22;20003;-68
2023/01/27 01:19:31;;;;;;;1.30;0.77;;;;;;;-140.72;100.00;53241.16;6273462;22;20010;-68
2023/01/27 01:21:57;;;;;;;2.42;1.00;;;;;;;-140.72;100.00;53214.78;6272030;22;20004;-68
2023/01/27 01:24:22;;;;;;;3.20;1.05;;;;;;;-140.72;100.00;53239.13;6270270;22;20030;-67
2023/01/27 01:26:48;;;;;;;4.35;0.25;;;;;;;-140.72;100.00;53233.03;6272894;22;20003;-68
2023/01/27 01:29:13;;;;;;;1.27;0.60;;;;;;;-140.72;100.00;53218.81;6272205;22;19996;-68
2023/01/27 01:31:39;;;;;;;2.30;0.82;;;;;;;-140.72;100.00;53239.13;6272532;22;20003;-67
2023/01/27 01:34:08;;;;;;;5.15;1.23;;;;;;;-140.72;100.00;53224.91;6271153;22;20000;-67
2023/01/27 01:36:33;;;;;;;1.42;0.77;;;;;;;-140.72;100.00;53226.94;6271860;22;20218;-68
2023/01/27 01:38:59;;;;;;;5.78;1.25;;;;;;;-140.72;100.00;53235.06;6272012;22;20026;-67
2023/01/27 01:41:25;;;;;;;14.60;1.25;;;;;;;-140.72;100.00;53243.19;6273169;22;20345;-68
2023/01/27 01:43:52;;;;;;;4.90;1.02;;;;;;;-140.72;100.00;53231.00;6271101;22;20012;-69
2023/01/27 01:46:18;;;;;;;3.78;1.23;;;;;;;-140.72;100.00;53222.88;6273332;22;20079;-68
2023/01/27 01:49:00;;;;;;;16.63;2.47;;;;;;;-140.72;100.00;53263.47;6273408;22;20000;-67
2023/01/27 01:51:31;;;;;;;2.80;1.23;;;;;;;-140.72;100.00;53222.88;6272457;22;20026;-67
2023/01/27 01:54:02;;;;;;;1.50;0.95;;;;;;;-140.72;100.00;53231.00;6272511;22;20027;-68
2023/01/27 01:56:36;;;;;;;4.82;1.83;;;;;;;-140.72;100.00;53263.47;6271867;22;20076;-68
2023/01/27 01:59:11;;;;;;;1.33;0.77;;;;;;;-140.72;100.00;53267.53;6272784;22;20007;-69
2023/01/27 02:01:36;;;;;;;3.83;1.00;;;;;;;-140.72;100.00;53259.41;6273263;22;20424;-67
2023/01/27 02:04:07;;;;;;;3.90;1.58;;;;;;;-140.72;100.00;53228.97;6270919;22;19996;-67
2023/01/27 02:06:42;;;;;;;3.60;1.75;;;;;;;-140.72;100.00;53218.81;6246072;22;19999;-67
2023/01/27 02:09:08;;;;;;;7.43;1.38;;;;;;;-140.72;100.00;53224.91;6272667;22;20089;-69
2023/01/27 02:11:33;;;;;;;4.18;1.88;;;;;;;-140.72;100.00;53279.72;6272331;22;20389;-67
2023/01/27 02:14:02;;;;;;;5.13;2.00;;;;;;;-140.72;100.00;53255.34;6271970;22;20070;-69
2023/01/27 02:16:29;;;;;;;6.45;1.27;;;;;;;-140.72;100.00;53255.34;6272398;22;20000;-69
2023/01/27 02:18:54;;;;;;;6.00;1.65;;;;;;;-140.72;100.00;53267.53;6271548;22;20006;-69
2023/01/27 02:21:19;;;;;;;1.75;1.30;;;;;;;-140.72;100.00;53283.78;6272976;22;20027;-67
2023/01/27 02:23:57;;;;;;;5.15;2.03;;;;;;;-140.72;100.00;53269.56;6272829;22;20003;-67
2023/01/27 02:26:31;;;;;;;3.45;1.70;;;;;;;-140.72;100.00;53273.63;6271631;22;20027;-68
2023/01/27 02:29:08;;;;;;;5.50;1.63;;;;;;;-140.72;100.00;53267.53;6272406;22;20007;-68
2023/01/27 02:31:35;;;;;;;4.93;1.42;;;;;;;-140.72;100.00;53253.31;6271163;22;20095;-68
2023/01/27 02:34:05;;;;;;;2.28;1.27;;;;;;;-140.72;100.00;53212.75;6272622;22;19995;-68
2023/01/27 02:36:40;;;;;;;3.72;2.00;;;;;;;-140.72;100.00;53224.91;6272184;22;20042;-68
2023/01/27 02:39:08;;;;;;;5.22;1.92;;;;;;;-140.72;100.00;53239.13;6272453;22;20003;-67
2023/01/27 02:41:38;;;;;;;2.92;1.73;;;;;;;-140.72;100.00;53279.72;6272947;22;20003;-68
2023/01/27 02:44:04;;;;;;;;;;;;;;;-140.72;100.00;53269.56;6273939;22;20000;-69
2023/01/27 02:46:32;;;;;;;4.93;2.33;;;;;;;-140.72;100.00;53243.19;6273493;22;20294;-68
2023/01/27 02:48:58;;;;;;;2.40;1.33;;;;;;;-140.72;100.00;53257.38;6274476;22;19999;-67
2023/01/27 02:51:23;;;;;;;4.05;1.48;;;;;;;-140.72;100.00;53251.31;6274382;22;20006;-67
2023/01/27 02:53:49;;;;;;;4.15;1.98;;;;;;;-140.72;100.00;53261.44;6271746;22;20003;-67
2023/01/27 02:56:14;;;;;;;2.80;1.52;;;;;;;-140.72;100.00;53271.59;6273766;22;20014;-68
2023/01/27 02:58:40;;;;;;;3.28;1.90;;;;;;;-140.72;100.00;53271.59;6274358;22;20003;-67
2023/01/27 03:01:05;;;;;;;2.92;1.95;;;;;;;-140.72;100.00;53263.47;6272918;22;20453;-68
2023/01/27 03:03:31;;;;;;;5.05;2.40;;;;;;;-140.72;100.00;53273.63;6274649;22;20000;-67
2023/01/27 03:05:56;;;;;;;3.92;2.92;;;;;;;-140.72;100.00;53263.47;6273652;22;20406;-67
2023/01/27 03:08:21;;;;;;;3.15;1.42;;;;;;;-140.72;100.00;53243.19;6273665;22;20000;-67
2023/01/27 03:10:51;;;;;;;4.93;2.13;;;;;;;-140.72;100.00;53243.19;6273882;22;20399;-68
2023/01/27 03:13:21;;;;;;;5.32;3.17;;;;;;;-140.72;100.00;53241.16;6274463;22;20428;-68
2023/01/27 03:18:30;;;;;;;4.22;2.60;;;;;;;-140.72;100.00;53239.13;6273596;22;20011;-68
2023/01/27 03:21:00;;;;;;;8.90;2.47;;;;;;;-140.72;100.00;53255.34;6273156;22;20004;-67
2023/01/27 03:23:26;;;;;;;4.10;2.67;;;;;;;-140.72;100.00;53243.19;6273725;22;20435;-68
2023/01/27 03:25:52;;;;;;;5.53;2.92;;;;;;;-140.72;100.00;53312.19;6273977;22;20200;-68
2023/01/27 03:28:17;;;;;;;13.27;4.38;;;;;;;-140.72;100.00;53243.19;6273626;22;20003;-67
2023/01/27 03:30:42;;;;;;;5.18;3.38;;;;;;;-140.72;100.00;53263.47;6273634;22;20030;-67
2023/01/27 03:33:08;;;;;;;7.05;2.83;;;;;;;-140.72;100.00;53255.34;6272902;22;20444;-67
2023/01/27 03:35:38;;;;;;;5.22;3.08;;;;;;;-140.72;100.00;53257.38;6273226;22;20017;-68
2023/01/27 03:46:19;;;;;;;6.53;3.67;;;;;;;-140.72;100.00;53300.00;6274218;22;20011;-68
2023/01/27 03:48:53;;;;;;;4.35;3.10;;;;;;;-140.72;100.00;53271.59;6272890;22;19999;-68
2023/01/27 03:51:21;;;;;;;5.97;3.88;;;;;;;-140.72;100.00;53279.72;6273827;22;20428;-68
2023/01/27 03:53:46;;;;;;;6.15;3.30;;;;;;;-140.72;100.00;53245.22;6273793;22;20000;-68
2023/01/27 03:56:13;;;;;;;6.25;3.72;;;;;;;-140.72;100.00;53249.28;6273038;22;19996;-68
2023/01/27 03:58:42;;;;;;;5.35;3.22;;;;;;;-140.72;100.00;53261.44;6274131;22;20010;-68
2023/01/27 04:01:12;;;;;;;5.85;3.80;;;;;;;-140.72;100.00;53235.06;6274076;22;20011;-68
2023/01/27 04:09:17;;;;;;;5.68;3.40;;;;;;;-140.72;100.00;53275.66;6274098;22;20046;-67
2023/01/27 04:11:54;;;;;;;5.72;3.58;;;;;;;-140.72;100.00;53218.81;6273575;22;20361;-68
2023/01/27 04:14:22;;;;;;;5.15;3.35;;;;;;;-140.72;100.00;53239.13;6273407;22;20027;-68
2023/01/27 04:16:48;;;;;;;8.02;4.30;;;;;;;-140.72;100.00;53281.75;6272807;22;19995;-69
2023/01/27 04:19:17;;;;;;;6.93;4.75;;;;;;;-140.72;100.00;53273.63;6273998;22;20701;-67
2023/01/27 04:21:42;;;;;;;10.70;5.13;;;;;;;-140.72;100.00;53263.47;6274047;22;20472;-68
2023/01/27 04:24:16;;;;;;;6.82;3.40;;;;;;;-140.72;100.00;53265.50;6272557;22;20000;-68
2023/01/27 04:26:45;;;;;;;10.70;5.22;;;;;;;-140.72;100.00;53235.06;6273889;22;20067;-68
2023/01/27 04:29:12;;;;;;;8.27;5.35;;;;;;;-140.72;100.00;53281.75;6273185;22;20410;-68
2023/01/27 04:31:38;;;;;;;9.93;5.90;;;;;;;-140.72;100.00;53271.59;6272909;22;20318;-69
2023/01/27 04:34:03;;;;;;;6.47;4.10;;;;;;;-140.72;100.00;53259.41;6271491;22;20314;-69
2023/01/27 04:36:29;;;;;;;6.43;4.20;;;;;;;-140.72;100.00;53275.66;6272797;22;19999;-68
2023/01/27 04:38:54;;;;;;;8.55;5.25;;;;;;;-140.72;100.00;53271.59;6271565;22;20346;-68
2023/01/27 04:41:20;;;;;;;7.78;4.55;;;;;;;-140.72;100.00;53265.50;6273045;22;20035;-68
2023/01/27 04:43:45;;;;;;;8.88;4.82;;;;;;;-140.72;100.00;53245.22;6272720;22;20354;-68
2023/01/27 04:46:13;;;;;;;7.55;4.68;;;;;;;-140.72;100.00;53275.66;6272104;22;19996;-68
2023/01/27 04:48:39;;;;;;;7.45;4.35;;;;;;;-140.72;100.00;53257.38;6272792;22;19996;-67
2023/01/27 04:51:04;;;;;;;8.85;4.50;;;;;;;-140.72;100.00;53251.31;6272684;22;20371;-68
2023/01/27 04:53:30;;;;;;;5.15;3.28;;;;;;;-140.72;100.00;53235.06;6271618;22;19999;-68
2023/01/27 04:56:02;;;;;;;6.93;3.88;;;;;;;-140.72;100.00;53283.78;6272731;22;20061;-68
2023/01/27 04:58:27;;;;;;;4.38;3.15;;;;;;;-140.72;100.00;53249.28;6272343;22;20009;-68
2023/01/27 05:00:53;;;;;;;4.90;3.60;;;;;;;-140.72;100.00;53259.41;6271525;22;20003;-68
2023/01/27 05:03:18;;;;;;;4.78;3.65;;;;;;;-140.72;100.00;53275.66;6272870;22;20000;-69
2023/01/27 05:05:43;;;;;;;5.20;2.95;;;;;;;-140.72;100.00;53237.09;6272565;22;20042;-67
2023/01/27 05:08:09;;;;;;;5.80;3.13;;;;;;;-140.72;100.00;53239.13;6267727;22;20523;-67
2023/01/27 05:10:35;;;;;;;4.22;3.08;;;;;;;-140.72;100.00;53287.84;6272738;22;20326;-68
2023/01/27 05:13:01;;;;;;;3.70;1.98;;;;;;;-140.72;100.00;53263.47;6271569;22;20035;-67
2023/01/27 05:15:27;;;;;;;3.33;1.88;;;;;;;-140.72;100.00;53259.41;6272427;22;20015;-68
2023/01/27 05:17:56;;;;;;;3.35;2.10;;;;;;;-140.72;100.00;53237.09;6271938;22;20042;-69
2023/01/27 05:20:21;;;;;;;4.10;1.80;;;;;;;-140.72;100.00;53279.72;6272141;22;20087;-68
2023/01/27 05:22:47;;;;;;;3.20;1.73;;;;;;;-140.72;100.00;53281.75;6272578;22;20031;-69
2023/01/27 05:25:12;;;;;;;2.53;1.83;;;;;;;-140.72;100.00;53275.66;6273026;22;20358;-67
2023/01/27 05:27:38;;;;;;;2.25;1.38;;;;;;;-140.72;100.00;53275.66;6271304;22;20000;-68
2023/01/27 05:30:04;;;;;;;3.00;1.50;;;;;;;-140.72;100.00;53265.50;6272551;22;19995;-69
2023/01/27 05:32:29;;;;;;;2.85;1.80;;;;;;;-140.72;100.00;53291.88;6271988;22;20448;-67
2023/01/27 05:34:54;;;;;;;3.75;1.90;;;;;;;-140.72;100.00;53235.06;6270616;22;20004;-67
2023/01/27 05:37:20;;;;;;;2.47;1.63;;;;;;;-140.72;100.00;53251.31;6272383;22;20007;-67
2023/01/27 05:39:45;;;;;;;4.28;1.85;;;;;;;-140.72;100.00;53269.56;6271491;22;20007;-67
2023/01/27 05:42:10;;;;;;;2.13;1.58;;;;;;;-140.72;100.00;53214.78;6272176;22;20000;-67
2023/01/27 05:44:36;;;;;;;2.85;1.63;;;;;;;-140.72;100.00;53253.31;6272298;22;20500;-67
2023/01/27 05:47:01;;;;;;;6.63;1.80;;;;;;;-140.72;100.00;53245.22;6272429;22;20000;-67
2023/01/27 05:49:26;;;;;;;2.88;1.45;;;;;;;-140.72;100.00;53295.94;6272400;22;20407;-67
2023/01/27 05:51:52;;;;;;;2.22;1.42;;;;;;;-140.72;100.00;53279.72;6271983;22;20394;-67
2023/01/27 05:54:17;;;;;;;5.22;1.70;;;;;;;-140.72;100.00;53285.81;6272427;22;20000;-68
2023/01/27 05:56:43;;;;;;;2.42;1.48;;;;;;;-140.72;100.00;53243.19;6270663;22;20000;-67
2023/01/27 05:59:09;;;;;;;2.63;2.00;;;;;;;-140.72;100.00;53233.03;6272285;22;19996;-68
2023/01/27 06:01:36;;;;;;;3.08;1.58;;;;;;;-140.72;100.00;53235.06;6272833;22;20011;-68
2023/01/27 06:04:04;;;;;;;2.83;1.65;;;;;;;-140.72;100.00;53269.56;6271513;22;20003;-67
2023/01/27 06:06:31;;;;;;;2.15;1.10;;;;;;;-140.72;100.00;53287.84;6271818;22;20079;-66
2023/01/27 06:09:00;;;;;;;4.13;2.50;;;;;;;-140.72;100.00;53267.53;6271576;22;19995;-67
2023/01/27 06:11:25;;;;;;;2.63;1.65;;;;;;;-140.72;100.00;53277.69;6271778;22;20069;-67
2023/01/27 06:13:52;;;;;;;1.98;1.33;;;;;;;-140.72;100.00;53257.38;6271920;22;20004;-68
2023/01/27 06:16:19;;;;;;;5.25;2.00;;;;;;;-140.72;100.00;53226.94;6272309;22;20061;-69
2023/01/27 06:18:46;;;;;;;1.67;1.52;;;;;;;-140.72;100.00;53251.31;6273515;22;19999;-67
2023/01/27 06:21:12;;;;;;;5.90;2.08;;;;;;;-140.72;100.00;53271.59;6274694;22;19999;-68
2023/01/27 06:23:41;;;;;;;2.80;1.63;;;;;;;-140.72;100.00;53265.50;6273827;22;20091;-67
2023/01/27 06:26:09;;;;;;;2.10;1.35;;;;;;;-140.72;100.00;53249.28;6273822;22;20008;-67
2023/01/27 06:28:38;;;;;;;2.50;1.67;;;;;;;-140.72;100.00;53243.19;6273612;22;20454;-67
2023/01/27 06:31:15;;;;;;;3.83;1.75;;;;;;;-140.72;100.00;53212.75;6273002;22;20125;-68
2023/01/27 06:33:41;;;;;;;2.92;1.85;;;;;;;-140.72;100.00;53273.63;6273504;22;20026;-67
2023/01/27 06:36:12;;;;;;;1.90;1.40;;;;;;;-140.72;100.00;53281.75;6273825;22;20035;-68
2023/01/27 06:38:37;;;;;;;2.60;1.60;;;;;;;-140.72;100.00;53269.56;6273443;22;20016;-68
2023/01/27 06:41:04;;;;;;;2.65;1.80;;;;;;;-140.72;100.00;53218.81;6274137;22;20035;-67
2023/01/27 06:43:29;;;;;;;6.68;1.70;;;;;;;-140.72;100.00;53259.41;6273806;22;19999;-67
2023/01/27 06:45:56;;;;;;;2.13;1.40;;;;;;;-140.72;100.00;53287.84;6272689;22;20006;-68
2023/01/27 06:48:22;;;;;;;2.83;1.50;;;;;;;-140.72;100.00;53271.59;6274259;22;20003;-68
2023/01/27 06:50:51;;;;;;;2.15;1.55;;;;;;;-140.72;100.00;53241.16;6274056;22;20003;-68
2023/01/27 06:53:17;;;;;;;2.85;1.42;;;;;;;-140.72;100.00;53259.41;6272952;22;20004;-68
2023/01/27 06:55:43;;;;;;;2.15;1.30;;;;;;;-140.72;100.00;53247.25;6274565;22;20076;-67
2023/01/27 06:58:10;;;;;;;1.40;1.10;;;;;;;-140.72;100.00;53226.94;6273726;22;20006;-67
2023/01/27 07:00:37;;;;;;;2.72;1.42;;;;;;;-140.72;100.00;53235.06;6272868;22;20011;-67
2023/01/27 07:03:03;;;;;;;2.45;1.08;;;;;;;-140.72;100.00;53287.84;6273481;22;20007;-68
2023/01/27 07:05:29;;;;;;;2.00;1.10;;;;;;;-140.72;100.00;53235.06;6274310;22;20418;-67
2023/01/27 07:07:54;;;;;;;1.58;1.10;;;;;;;-140.72;100.00;53267.53;6272952;22;20006;-69
2023/01/27 07:10:19;;;;;;;5.65;1.48;;;;;;;-140.72;100.00;53271.59;6274388;22;20000;-67
2023/01/27 07:12:45;;;;;;;1.75;1.02;;;;;;;-140.72;100.00;53257.38;6272933;22;20448;-67
2023/01/27 07:15:11;;;;;;;1.48;1.08;;;;;;;-140.72;100.00;53233.03;6273918;22;20038;-68
2023/01/27 07:17:36;;;;;;;3.60;1.15;;;;;;;-140.72;100.00;53295.94;6274005;22;20006;-67
2023/01/27 07:20:06;;;;;;;2.40;1.33;;;;;;;-140.72;100.00;53239.13;6273273;22;20308;-68
2023/01/27 07:22:32;;;;;;;;;;;;;;;-140.72;100.00;53241.16;6274816;22;20007;-68
2023/01/27 07:24:57;;;;;;;2.00;1.35;;;;;;;-140.72;100.00;53237.09;6274020;22;19903;-67
2023/01/27 07:27:23;;;;;;;1.92;1.38;;;;;;;-140.72;100.00;53279.72;6273504;22;20004;-68
2023/01/27 07:29:49;;;;;;;2.47;1.58;;;;;;;-140.72;100.00;53287.84;6272696;22;20082;-68
2023/01/27 07:32:14;;;;;;;1.63;1.20;;;;;;;-140.72;100.00;53235.06;6270438;22;20386;-68
2023/01/27 07:34:40;;;;;;;2.92;1.10;;;;;;;-140.72;100.00;53318.28;6269542;22;20046;-67
2023/01/27 07:37:06;;;;;;;1.40;1.00;;;;;;;-140.72;100.00;53239.13;6269320;22;20109;-67
2023/01/27 07:39:32;;;;;;;3.25;1.08;;;;;;;-140.72;100.00;53267.53;6270701;22;20401;-67
2023/01/27 07:42:00;;;;;;;2.85;1.13;;;;;;;-140.72;100.00;53267.53;6269482;22;20027;-67
2023/01/27 07:44:29;;;;;;;1.50;0.93;;;;;;;-140.72;100.00;53273.63;6270162;22;20070;-68
2023/01/27 07:46:56;;;;;;;2.53;1.48;;;;;;;-140.72;100.00;53271.59;6273354;22;20003;-68
2023/01/27 07:49:22;;;;;;;1.35;1.00;;;;;;;-140.72;100.00;53257.38;6273598;22;20402;-68
2023/01/27 07:51:47;;;;;;;1.50;0.93;;;;;;;-140.72;100.00;53300.00;6273985;22;20056;-67
2023/01/27 07:54:12;;;;;;;1.30;0.93;;;;;;;-140.72;100.00;53267.53;6274042;22;20310;-68
2023/01/27 07:56:38;;;;;;;0.95;0.50;;;;;;;-140.72;100.00;53271.59;6271068;22;19999;-68
2023/01/27 07:59:03;;;;;;;2.88;1.50;;;;;;;-140.72;100.00;53267.53;6273928;22;20431;-67
2023/01/27 08:01:29;;;;;;;1.90;1.20;;;;;;;-140.72;100.00;53226.94;6273278;22;20004;-68
2023/01/27 08:03:54;;;;;;;1.42;0.88;;;;;;;-140.72;100.00;53271.59;6272718;22;19996;-67
2023/01/27 08:06:20;;;;;;;1.30;0.95;;;;;;;-140.72;100.00;53271.59;6273849;22;19999;-67
2023/01/27 08:08:45;;;;;;;1.95;1.40;;;;;;;-140.72;100.00;53265.50;6273456;22;20073;-68
2023/01/27 08:11:14;;;;;;;1.73;1.00;;;;;;;-140.72;100.00;53257.38;6273114;22;20071;-68
2023/01/27 08:13:40;;;;;;;1.60;1.20;;;;;;;-140.72;100.00;53291.88;6273788;22;20004;-68
2023/01/27 08:16:09;;;;;;;1.58;0.88;;;;;;;-140.72;100.00;53259.41;6272552;22;20445;-67
2023/01/27 08:18:35;;;;;;;1.33;0.90;;;;;;;-140.72;100.00;53279.72;6273315;22;20035;-68
2023/01/27 08:21:03;;;;;;;2.03;1.20;;;;;;;-140.72;100.00;53304.06;6272971;22;20004;-68
2023/01/27 08:23:29;;;;;;;1.98;1.55;;;;;;;-140.72;100.00;53275.66;6272018;22;20006;-68
2023/01/27 08:26:00;;;;;;;1.48;0.95;;;;;;;-140.72;100.00;53255.34;6272377;22;20004;-67
2023/01/27 08:28:28;;;;;;;2.35;1.08;;;;;;;-140.72;100.00;53251.31;6273020;22;20029;-69
2023/01/27 08:30:54;;;;;;;2.25;1.27;;;;;;;-140.72;100.00;53275.66;6271859;22;20000;-68
2023/01/27 08:33:22;;;;;;;1.52;0.95;;;;;;;-140.72;100.00;53214.78;6272854;22;20432;-68
2023/01/27 08:35:49;;;;;;;2.30;1.42;;;;;;;-140.72;100.00;53224.91;6272169;22;20058;-68
2023/01/27 08:38:18;;;;;;;2.88;1.30;;;;;;;-140.72;100.00;53233.03;6268003;22;20087;-69
2023/01/27 08:40:46;;;;;;;1.35;0.93;;;;;;;-140.72;100.00;53281.75;6272176;22;20094;-68
2023/01/27 08:43:12;;;;;;;1.58;0.95;;;;;;;-140.72;100.00;53267.53;6270560;22;20426;-68
2023/01/27 08:45:37;;;;;;;1.13;0.93;;;;;;;-140.72;100.00;53279.72;6269943;22;20080;-68
2023/01/27 08:48:04;;;;;;;1.90;0.88;;;;;;;-140.72;100.00;53263.47;6271462;22;20008;-68
2023/01/27 08:50:30;;;;;;;3.92;1.52;;;;;;;-140.72;100.00;53259.41;6271456;22;20366;-69
2023/01/27 08:53:00;;;;;;;4.50;1.08;;;;;;;-140.72;100.00;53275.66;6269950;22;20467;-68
2023/01/27 08:55:30;;;;;;;1.40;1.05;;;;;;;-140.72;100.00;53228.97;6271268;22;20473;-68
2023/01/27 08:57:56;;;;;;;2.05;1.08;;;;;;;-140.72;100.00;53245.22;6270343;22;20394;-68
2023/01/27 09:00:21;;;;;;;4.85;1.10;;;;;;;-140.72;100.00;53267.53;6269982;22;20003;-68
2023/01/27 09:02:49;;;;;;;1.50;1.08;;;;;;;-140.72;100.00;53251.31;6271766;22;20003;-69
2023/01/27 09:05:16;;;;;;;1.85;0.80;;;;;;;-140.72;100.00;53247.25;6270376;22;20045;-68
2023/01/27 09:07:42;;;;;;;1.40;0.88;;;;;;;-140.72;100.00;53263.47;6272036;22;20083;-68
2023/01/27 09:10:08;;;;;;;5.00;0.88;;;;;;;-140.72;100.00;53247.25;6271215;22;20019;-68
2023/01/27 09:12:33;;;;;;;2.63;0.90;;;;;;;-140.72;100.00;53235.06;6270205;22;20306;-68
2023/01/27 09:14:59;;;;;;;1.60;1.10;;;;;;;-140.72;100.00;53235.06;6270869;22;19999;-68
2023/01/27 09:17:24;;;;;;;1.50;1.02;;;;;;;-140.72;100.00;53231.00;6270718;22;19995;-69
2023/01/27 09:19:50;;;;;;;1.75;0.85;;;;;;;-140.72;100.00;53210.72;6270619;22;19999;-68
2023/01/27 09:22:15;;;;;;;1.63;0.90;;;;;;;-140.72;100.00;53237.09;6271453;22;20468;-68
2023/01/27 09:24:41;;;;;;;2.20;0.65;;;;;;;-140.72;100.00;53239.13;6269206;22;20337;-68
2023/01/27 09:27:06;;;;;;;1.25;0.60;;;;;;;-140.72;100.00;53255.34;6269348;22;20071;-69
2023/01/27 09:29:31;;;;;;;1.92;0.90;;;;;;;-140.72;100.00;53231.00;6268469;22;20292;-69
2023/01/27 09:31:57;;;;;;;1.00;0.82;;;;;;;-140.72;100.00;53239.13;6270377;22;19999;-68
2023/01/27 09:34:22;;;;;;;4.70;0.90;;;;;;;-140.72;100.00;53259.41;6269882;22;20007;-67
2023/01/27 09:36:55;;;;;;;2.55;1.10;;;;;;;-140.72;100.00;53271.59;6268840;22;20057;-68
2023/01/27 09:39:21;;;;;;;1.08;0.68;;;;;;;-140.72;100.00;53247.25;6269982;22;20057;-68
2023/01/27 09:42:06;;;;;;;2.03;0.50;;;;;;;-140.72;100.00;53222.88;6269570;22;20134;-68
2023/01/27 09:45:07;;;;;;;3.67;0.75;;;;;;;-140.72;100.00;53220.84;6270268;22;20003;-69
2023/01/27 09:47:40;;;;;;;2.67;1.63;;;;;;;-140.72;100.00;53269.56;6236980;22;20140;-68
2023/01/27 09:50:20;;;;;;;0.65;0.50;;;;;;;-140.72;100.00;53226.94;6271124;22;20278;-68
2023/01/27 09:52:54;;;;;;;1.30;0.68;;;;;;;-140.72;100.00;53245.22;6270024;22;20007;-68
2023/01/27 09:55:31;;;;;;;1.15;0.75;;;;;;;-140.72;100.00;53255.34;6270942;22;20033;-68
2023/01/27 09:58:07;;;;;;;0.82;0.63;;;;;;;-140.72;100.00;53212.75;6270769;22;20004;-68
2023/01/27 10:00:59;;;;;;;0.57;0.40;;;;;;;-140.72;100.00;53235.06;6271725;22;20011;-68
2023/01/27 10:03:46;;;;;;;2.40;0.70;;;;;;;-140.72;100.00;53271.59;6271445;22;19996;-68
2023/01/27 10:06:18;;;;;;;3.67;1.30;;;;;;;-140.72;100.00;53212.75;6270690;22;20489;-69
2023/01/27 10:08:52;;;;;;;1.20;0.88;;;;;;;-140.72;100.00;53190.41;6272487;22;20011;-68
2023/01/27 10:11:53;;;;;;;1.83;0.82;;;;;;;-140.72;100.00;53228.97;6270974;22;20093;-69
2023/01/27 10:14:57;;;;;;;1.40;0.60;;;;;;;-140.72;100.00;53237.09;6271017;22;20007;-69
2023/01/27 10:17:40;;;;;;;1.52;0.68;;;;;;;-140.72;100.00;53243.19;6211487;22;20310;-68
2023/01/27 10:20:33;;;;;;;2.47;0.90;;;;;;;-140.72;100.00;53204.63;6272396;22;20039;-68
2023/01/27 10:22:58;;;;;;;2.05;1.10;;;;;;;-140.72;100.00;53239.13;6270459;22;19995;-68
2023/01/27 10:25:29;;;;;;;4.03;0.50;;;;;;;-140.72;100.00;53243.19;6271716;22;20084;-69
2023/01/27 10:27:57;;;;;;;3.05;0.80;;;;;;;-140.72;100.00;53235.06;6270823;22;20398;-68
2023/01/27 10:30:36;;;;;;;1.95;0.95;;;;;;;-140.72;100.00;53247.25;6272439;22;20069;-68
2023/01/27 10:33:17;;;;;;;1.42;1.00;;;;;;;-140.72;100.00;53224.91;6273280;22;20103;-68
2023/01/27 10:35:52;;;;;;;1.38;0.63;;;;;;;-140.72;100.00;53235.06;6273939;22;20461;-68
2023/01/27 10:38:32;;;;;;;2.58;1.10;;;;;;;-140.72;100.00;53214.78;6271047;22;20491;-69
2023/01/27 10:41:07;;;;;;;1.73;0.85;;;;;;;-140.72;100.00;53239.13;6272647;22;20006;-69
2023/01/27 10:43:41;;;;;;;1.73;1.02;;;;;;;-140.72;100.00;53222.88;6273855;22;20003;-69
2023/01/27 10:46:31;;;;;;;1.85;0.90;;;;;;;-140.72;100.00;53265.50;6273369;22;20008;-68
2023/01/27 10:49:22;;;;;;;1.23;0.90;;;;;;;-140.72;100.00;53257.38;6272067;22;20011;-68
2023/01/27 10:52:10;;;;;;;6.97;0.98;;;;;;;-140.72;100.00;53243.19;6270714;22;20004;-68
2023/01/27 10:54:43;;;;;;;1.50;0.60;;;;;;;-140.72;100.00;53291.88;6272613;22;20366;-68
2023/01/27 10:57:33;;;;;;;0.60;0.38;;;;;;;-140.72;100.00;53204.63;6272610;22;20121;-68
2023/01/27 11:00:13;;;;;;;1.00;0.47;;;;;;;-140.72;100.00;53206.66;6271487;22;19999;-69
2023/01/27 11:02:46;;;;;;;0.52;0.35;;;;;;;-140.72;100.00;53222.88;6273575;22;20003;-68
2023/01/27 11:05:21;;;;;;;0.95;0.77;;;;;;;-140.72;100.00;53222.88;6271319;22;20085;-69
2023/01/27 11:07:55;;;;;;;0.57;0.55;;;;;;;-140.72;100.00;53214.78;6272047;22;20000;-68
2023/01/27 11:10:23;;;;;;;1.55;0.50;;;;;;;-140.72;100.00;53174.19;6272633;22;20008;-69
2023/01/27 11:12:54;;;;;;;0.93;0.55;;;;;;;-140.72;100.00;53186.34;6271650;22;20022;-69
2023/01/27 11:15:31;;;;;;;0.57;0.35;;;;;;;-140.72;100.00;53172.16;6272870;22;20051;-69
2023/01/27 11:18:12;;;;;;;1.13;0.55;;;;;;;-140.72;100.00;53198.53;6271648;22;19996;-68
2023/01/27 11:20:48;;;;;;;1.30;0.52;;;;;;;-140.72;100.00;53149.81;6271499;22;19999;-68
2023/01/27 11:23:19;;;;;;;1.08;0.55;;;;;;;-140.72;100.00;53192.44;6270732;22;20192;-69
2023/01/27 11:25:57;;;;;;;0.70;0.60;;;;;;;-140.72;100.00;53188.38;6269907;22;20000;-69
2023/01/27 11:28:37;;;;;;;0.30;0.30;;;;;;;-140.72;100.00;53206.66;6272895;22;20442;-68
2023/01/27 11:31:15;;;;;;;0.95;0.63;;;;;;;-140.72;100.00;53166.06;6271698;22;20073;-68
2023/01/27 11:33:50;;;;;;;1.05;0.45;;;;;;;-140.72;100.00;53153.88;6271552;22;20011;-67
2023/01/27 11:36:16;;;;;;;0.40;0.28;;;;;;;-140.72;100.00;53198.53;6272496;22;20317;-69
2023/01/27 11:38:42;;;;;;;0.82;0.28;;;;;;;-140.72;100.00;53218.81;6272261;22;20074;-68
2023/01/27 11:41:08;;;;;;;0.70;0.40;;;;;;;-140.72;100.00;53214.78;6270562;22;20000;-68
2023/01/27 11:43:36;;;;;;;0.90;0.50;;;;;;;-140.72;100.00;53145.75;6271813;22;20406;-69